Airfield :
LOGIN :

Register | Disclaimer

   EN    FR    IT 

 










Legend :    VFR   Marginal VFR   IFR   Intensive IFR   Very Intensive IFR
Visi :
Ceiling :
>= 8 km
>= 3000ft
5 to 8 km
1000 to 3000 ft
1500m to 5 km
500 to 1000 ft
800 to 1500m
200 to 500 ft
< 800m
< 200 ft
Symbols :   Thunderstorms  Fog  Heavy snow  Heavy precipitations  Wind > 20 kt
SIGMETs :     Misc.  Thunderstorms  Icing  Turbulence  Mountain Waves  Volcanic Ashes






- Airport Elevation : 174 ft
- IATA code : RYG


ENRY - Moss , Rygge

CURRENT METAR :
  • 282150Z AUTO 18004KT 9999NDV NCD 10/05 Q1030

EXPIRED METARs :
  • 282120Z AUTO 16004KT 9999NDV NCD 11/06 Q1030
  • 282050Z AUTO 14004KT 9999NDV NCD 12/06 Q1030
  • 282020Z AUTO 09003KT 050V190 9999NDV NCD 11/07 Q1030
  • 281950Z AUTO 19006KT 9999NDV NCD 13/07 Q1030
  • 281920Z AUTO 23004KT 9999NDV NCD 15/03 Q1030

TAF TAF ENRY
Valid from the 28 at 18:00 until the 29 at 18:00 UTC


2818/2918 VRB05KT CAVOK
PROB40 2912/2918 21010KT



MET'MAP, your aeronautical weather chart ! - Copyright ORBIFLY December 2007 - Disclaimer

ORBIFLY MET'MAP TEAM :

Programming & Development : Alexandra Zaïnal
Concept & original design : Baudouin d'Aumeries
Assistance for programming : Marc-Olivier Méhu
Technical & hardware support : Manuel Goepfert

Contact : metmap@orbifly.com




SOURCES & CREDITS :

   NOAA